Time;durP1;ratioP1;P1;durP2;ratioP2;P2;SDS_P1;SDS_P2;PMS_P1;PMS_P2;Temp;Humidity;BMP_temperature;BMP_pressure;BME280_temperature;BME280_humidity;BME280_pressure;Samples;Min_cycle;Max_cycle;Signal;HPM_P1;HPM_P2
2022/02/06 00:00:03;;;;;;;9.10;4.85;;;4.40;56.50;;;;;;5096569;28;20024;-68
2022/02/06 00:02:34;;;;;;;7.97;4.40;;;4.40;56.50;;;;;;5077863;28;20414;-69
2022/02/06 00:05:00;;;;;;;10.75;4.40;;;4.40;56.40;;;;;;5095850;28;20134;-68
2022/02/06 00:07:26;;;;;;;17.73;5.47;;;4.40;56.40;;;;;;5096096;28;20031;-68
2022/02/06 00:09:52;;;;;;;8.10;4.63;;;4.40;56.50;;;;;;5095771;28;20028;-69
2022/02/06 00:12:18;;;;;;;7.60;4.57;;;4.40;56.70;;;;;;5096312;28;20020;-70
2022/02/06 00:14:44;;;;;;;11.77;3.88;;;4.40;56.60;;;;;;5096023;28;20482;-69
2022/02/06 00:17:10;;;;;;;8.18;3.55;;;4.40;56.60;;;;;;5077645;28;20028;-69
2022/02/06 00:19:39;;;;;;;5.97;3.10;;;4.40;56.70;;;;;;5096114;28;20063;-69
2022/02/06 00:22:08;;;;;;;10.52;3.58;;;4.40;56.70;;;;;;5077628;28;20031;-69
2022/02/06 00:24:55;;;;;;;9.48;3.72;;;4.40;56.60;;;;;;5077638;28;20024;-69
2022/02/06 00:27:33;;;;;;;8.15;3.05;;;4.40;56.60;;;;;;5095876;28;20417;-68
2022/02/06 00:30:11;;;;;;;6.53;2.75;;;4.40;56.70;;;;;;5095592;28;20032;-69
2022/02/06 00:32:44;;;;;;;6.75;3.28;;;4.30;56.50;;;;;;5080186;28;20025;-69
2022/02/06 00:38:12;;;;;;;5.88;3.00;;;4.30;56.50;;;;;;5074999;28;20074;-69
2022/02/06 00:41:13;;;;;;;8.35;2.83;;;4.30;56.50;;;;;;5074311;28;20361;-68
2022/02/06 00:43:31;;;;;;;5.82;3.10;;;4.30;56.50;;;;;;5071641;28;20491;-69
2022/02/06 00:45:56;;;;;;;8.13;3.95;;;4.30;56.50;;;;;;5073789;28;20024;-69
2022/02/06 00:48:26;;;;;;;8.23;2.92;;;4.30;56.70;;;;;;5074173;28;20384;-69
2022/02/06 00:51:09;;;;;;;8.27;3.72;;;4.20;56.80;;;;;;5073786;28;20052;-68
2022/02/06 00:53:36;;;;;;;4.65;2.50;;;4.20;56.90;;;;;;5074986;28;20380;-69
2022/02/06 00:56:02;;;;;;;7.85;3.20;;;4.20;56.80;;;;;;5056810;28;20039;-68
2022/02/06 00:58:27;;;;;;;5.80;2.63;;;4.20;56.90;;;;;;5056643;28;20063;-68
2022/02/06 01:00:53;;;;;;;7.25;2.75;;;4.20;57.20;;;;;;5073300;28;20052;-69
2022/02/06 01:03:19;;;;;;;5.13;2.30;;;4.20;57.30;;;;;;5074791;28;20029;-69
2022/02/06 01:05:45;;;;;;;6.55;2.60;;;4.20;57.20;;;;;;5074621;28;20028;-69
2022/02/06 01:08:11;;;;;;;3.22;1.80;;;4.20;57.20;;;;;;5074404;28;20139;-70
2022/02/06 01:10:37;;;;;;;9.25;2.90;;;4.20;57.20;;;;;;5073369;28;20021;-68
2022/02/06 01:15:54;;;;;;;4.63;2.40;;;4.20;57.10;;;;;;5074349;28;20038;-68
2022/02/06 01:18:32;;;;;;;5.32;2.38;;;4.20;57.00;;;;;;5074459;28;20029;-69
2022/02/06 01:21:08;;;;;;;5.95;2.20;;;4.20;57.00;;;;;;5074768;28;20025;-69
2022/02/06 01:24:41;;;;;;;3.08;1.88;;;4.20;57.00;;;;;;5072907;28;20066;-68
2022/02/06 01:26:55;;;;;;;5.55;2.67;;;4.20;57.00;;;;;;5060283;28;20036;-69
2022/02/06 01:29:32;;;;;;;7.65;2.47;;;4.20;57.10;;;;;;5073570;28;20028;-69
2022/02/06 01:32:04;;;;;;;7.20;2.55;;;4.20;57.10;;;;;;5074386;28;20368;-69
2022/02/06 01:34:45;;;;;;;5.10;2.25;;;4.20;57.20;;;;;;5073763;28;20048;-68
2022/02/06 01:40:03;;;;;;;5.80;2.83;;;4.20;57.40;;;;;;5074112;28;20029;-68
2022/02/06 01:42:58;;;;;;;5.10;2.50;;;4.20;57.40;;;;;;5074041;28;20024;-68
2022/02/06 02:02:05;;;;;;;;;;;4.20;57.60;;;;;;5074063;28;20072;-69
2022/02/06 02:23:44;;;;;;;;;;;4.20;58.00;;;;;;5073668;28;20054;-69
2022/02/06 02:31:57;;;;;;;8.48;2.60;;;4.20;57.90;;;;;;5093387;28;20090;-68
2022/02/06 02:45:25;;;;;;;6.95;2.80;;;4.30;58.00;;;;;;5093206;28;20043;-70
2022/02/06 02:48:00;;;;;;;6.10;2.28;;;4.40;58.10;;;;;;5093496;28;20031;-68
2022/02/06 02:50:26;;;;;;;6.80;2.67;;;4.40;58.10;;;;;;5075263;28;20052;-69
2022/02/06 03:00:53;;;;;;;4.38;2.35;;;4.60;57.90;;;;;;5093376;28;20126;-69
2022/02/06 03:03:24;;;;;;;6.65;2.10;;;4.60;57.90;;;;;;5075217;28;20024;-69
2022/02/06 03:05:53;;;;;;;6.85;2.17;;;4.60;57.90;;;;;;5075253;28;20078;-68
2022/02/06 03:08:20;;;;;;;3.97;2.05;;;4.60;57.90;;;;;;5075110;28;20040;-69
2022/02/06 03:10:46;;;;;;;6.00;1.92;;;4.60;57.90;;;;;;5093544;28;20027;-69
2022/02/06 03:13:16;;;;;;;3.70;1.92;;;4.70;57.90;;;;;;5078128;28;20075;-69
2022/02/06 03:16:02;;;;;;;4.95;2.10;;;4.70;57.80;;;;;;5078973;28;20115;-69
2022/02/06 03:18:32;;;;;;;7.15;2.47;;;4.70;57.70;;;;;;5097148;28;20027;-68
2022/02/06 03:21:00;;;;;;;7.50;2.70;;;4.70;57.70;;;;;;5078757;28;20494;-69
2022/02/06 03:23:27;;;;;;;6.28;2.10;;;4.70;57.70;;;;;;5078380;28;20032;-69
2022/02/06 03:25:53;;;;;;;5.65;1.98;;;4.80;57.70;;;;;;5096622;28;20111;-69
2022/02/06 03:28:24;;;;;;;5.68;1.95;;;4.80;57.60;;;;;;5096831;28;20055;-68
2022/02/06 03:30:51;;;;;;;5.38;2.20;;;4.80;57.60;;;;;;5078636;28;20471;-69
2022/02/06 03:33:18;;;;;;;8.32;2.28;;;4.90;57.60;;;;;;5078296;28;20563;-68
2022/02/06 03:35:44;;;;;;;2.72;1.75;;;4.90;57.60;;;;;;5078934;28;20383;-69
2022/02/06 03:38:10;;;;;;;7.63;2.30;;;4.90;57.50;;;;;;5096683;28;20162;-69
2022/02/06 03:40:44;;;;;;;5.10;1.88;;;5.00;57.50;;;;;;5078449;28;20523;-69
2022/02/06 03:43:19;;;;;;;5.18;2.00;;;5.00;57.40;;;;;;5078524;28;20024;-68
2022/02/06 03:45:52;;;;;;;6.35;2.30;;;5.10;57.40;;;;;;5078350;28;20399;-68
2022/02/06 03:50:51;;;;;;;4.32;1.67;;;5.10;57.20;;;;;;5096369;28;20162;-69
2022/02/06 03:53:21;;;;;;;;;;;5.20;57.20;;;;;;5078743;28;20114;-69
2022/02/06 03:55:49;;;;;;;4.35;1.90;;;5.20;57.00;;;;;;5078337;28;20250;-68
2022/02/06 03:58:15;;;;;;;6.32;2.03;;;5.30;56.90;;;;;;5096613;28;20154;-69
2022/02/06 04:00:41;;;;;;;5.82;1.88;;;5.30;56.80;;;;;;5078156;28;20031;-69
2022/02/06 04:03:07;;;;;;;5.53;2.17;;;5.30;56.70;;;;;;5096250;28;20024;-69
2022/02/06 04:05:33;;;;;;;3.15;1.70;;;5.30;56.60;;;;;;5077997;28;20028;-68
2022/02/06 04:08:00;;;;;;;4.38;2.00;;;5.40;56.60;;;;;;5077988;28;20517;-68
2022/02/06 04:10:34;;;;;;;5.13;1.90;;;5.40;56.50;;;;;;5077917;28;20028;-68
2022/02/06 04:13:02;;;;;;;;;;;5.50;56.50;;;;;;5096574;28;20048;-69
2022/02/06 04:15:37;;;;;;;5.10;1.80;;;5.50;56.40;;;;;;5095558;28;19994;-68
2022/02/06 04:18:13;;;;;;;2.67;1.58;;;5.60;56.30;;;;;;5096060;28;20020;-69
2022/02/06 04:20:40;;;;;;;5.32;1.90;;;5.60;56.20;;;;;;5096013;28;20025;-69
2022/02/06 04:23:06;;;;;;;4.60;1.65;;;5.60;56.10;;;;;;5076785;28;20021;-68
2022/02/06 04:25:32;;;;;;;4.70;1.85;;;5.60;56.10;;;;;;5077237;28;20039;-68
2022/02/06 04:27:58;;;;;;;4.68;1.70;;;5.60;56.10;;;;;;5077700;28;20097;-69
2022/02/06 04:30:24;;;;;;;3.78;1.73;;;5.60;56.10;;;;;;5077472;28;20028;-71
2022/02/06 04:32:50;;;;;;;2.75;1.55;;;5.60;56.00;;;;;;5095759;28;20036;-69
2022/02/06 04:35:19;;;;;;;3.22;1.70;;;5.60;56.00;;;;;;5095724;28;20487;-68
2022/02/06 04:38:05;;;;;;;4.53;1.90;;;5.60;55.90;;;;;;5095595;28;20016;-68
2022/02/06 04:48:33;;;;;;;4.55;1.90;;;5.50;55.80;;;;;;5095411;28;20032;-69
2022/02/06 05:15:41;;;;;;;4.00;1.85;;;5.20;55.80;;;;;;5094935;28;20123;-69
2022/02/06 05:21:12;;;;;;;6.75;2.00;;;5.20;55.90;;;;;;5094800;28;20028;-69
2022/02/06 05:26:32;;;;;;;2.15;1.45;;;5.10;56.00;;;;;;5094531;28;20028;-68
2022/02/06 05:34:00;;;;;;;3.85;2.03;;;5.00;56.00;;;;;;5094259;28;20147;-69
2022/02/06 05:36:26;;;;;;;4.05;1.98;;;4.90;56.20;;;;;;5094395;28;20035;-69
2022/02/06 05:38:51;;;;;;;3.80;1.95;;;4.90;56.20;;;;;;5076210;28;20048;-68
2022/02/06 05:41:17;;;;;;;5.90;2.08;;;4.90;56.30;;;;;;5075792;28;20395;-69
2022/02/06 05:43:43;;;;;;;4.13;2.38;;;4.90;56.50;;;;;;5075928;28;20032;-69
2022/02/06 05:46:09;;;;;;;6.50;3.63;;;4.80;56.70;;;;;;5075960;28;20115;-69
2022/02/06 05:48:34;;;;;;;8.50;4.35;;;4.80;56.80;;;;;;5094194;28;20032;-69
2022/02/06 05:51:00;;;;;;;6.80;3.60;;;4.80;56.80;;;;;;5075893;28;20034;-69
2022/02/06 05:53:26;;;;;;;9.80;3.60;;;4.80;56.70;;;;;;5094005;28;20036;-69
2022/02/06 05:55:52;;;;;;;2.50;1.80;;;4.80;56.80;;;;;;5075934;28;20027;-68
2022/02/06 05:58:18;;;;;;;4.75;2.28;;;4.80;56.80;;;;;;5094105;28;20061;-68
2022/02/06 06:00:44;;;;;;;6.03;2.20;;;4.70;56.80;;;;;;5093685;28;20028;-69
2022/02/06 06:03:10;;;;;;;3.65;1.80;;;4.70;56.80;;;;;;5075868;28;20028;-68
2022/02/06 06:05:36;;;;;;;3.30;1.70;;;4.70;56.80;;;;;;5075687;28;20028;-68
2022/02/06 06:08:02;;;;;;;3.30;1.85;;;4.70;56.90;;;;;;5093956;28;20028;-69
2022/02/06 06:10:28;;;;;;;2.47;1.67;;;4.70;56.90;;;;;;5093872;28;20024;-68
2022/02/06 06:12:54;;;;;;;6.38;1.60;;;4.60;57.00;;;;;;5093664;28;20035;-69
2022/02/06 06:15:20;;;;;;;3.55;1.63;;;4.60;57.00;;;;;;5093794;28;20125;-69
2022/02/06 06:17:46;;;;;;;6.63;1.70;;;4.60;57.20;;;;;;5093426;28;20027;-69
2022/02/06 06:20:16;;;;;;;3.55;1.35;;;4.60;57.30;;;;;;5093728;28;20099;-70
2022/02/06 06:22:42;;;;;;;3.30;1.80;;;4.50;57.30;;;;;;5075595;28;20115;-69
2022/02/06 06:25:10;;;;;;;3.92;1.67;;;4.50;57.40;;;;;;5093693;28;20488;-69
2022/02/06 06:27:36;;;;;;;3.83;1.35;;;4.50;57.40;;;;;;5093514;28;20058;-69
2022/02/06 06:30:04;;;;;;;2.53;1.30;;;4.50;57.30;;;;;;5075455;28;20024;-69
2022/02/06 06:32:30;;;;;;;2.88;1.60;;;4.40;57.30;;;;;;5093938;28;20028;-68
2022/02/06 06:34:57;;;;;;;4.63;1.80;;;4.40;57.30;;;;;;5093097;28;20087;-68
2022/02/06 06:37:23;;;;;;;5.03;2.00;;;4.40;57.30;;;;;;5093589;28;20016;-68
2022/02/06 06:39:49;;;;;;;3.00;1.77;;;4.40;57.50;;;;;;5093563;28;20024;-69
2022/02/06 06:42:15;;;;;;;4.75;1.77;;;4.40;57.60;;;;;;5075391;28;20368;-68
2022/02/06 06:44:42;;;;;;;4.97;1.60;;;4.30;57.70;;;;;;5093330;28;20063;-68
2022/02/06 06:47:09;;;;;;;4.68;1.70;;;4.30;58.00;;;;;;5094940;28;20058;-68
2022/02/06 06:49:35;;;;;;;3.83;1.80;;;4.30;58.00;;;;;;5079454;28;20475;-68
2022/02/06 06:52:02;;;;;;;3.38;1.88;;;4.30;58.20;;;;;;5097608;28;20024;-68
2022/02/06 06:54:42;;;;;;;5.28;2.15;;;4.30;58.20;;;;;;5079301;28;20028;-68
2022/02/06 06:57:15;;;;;;;4.13;1.73;;;4.30;58.40;;;;;;5097290;28;20023;-69
2022/02/06 07:02:18;;;;;;;5.07;1.77;;;4.40;58.70;;;;;;5097161;28;20024;-68
2022/02/06 07:04:48;;;;;;;8.88;2.60;;;4.50;58.80;;;;;;5097383;28;20034;-69
2022/02/06 07:07:14;;;;;;;4.88;1.90;;;4.50;59.00;;;;;;5079154;28;20035;-68
2022/02/06 07:09:40;;;;;;;5.25;2.10;;;4.60;59.20;;;;;;5079141;28;20379;-69
2022/02/06 07:12:09;;;;;;;7.82;2.17;;;4.70;59.20;;;;;;5097188;28;20085;-69
2022/02/06 07:14:35;;;;;;;6.90;2.95;;;4.90;59.20;;;;;;5078895;28;20020;-68
2022/02/06 07:17:02;;;;;;;10.80;3.92;;;5.00;59.20;;;;;;5097134;28;20103;-69
2022/02/06 07:19:28;;;;;;;8.13;3.90;;;5.10;59.10;;;;;;5096907;28;20024;-69
2022/02/06 07:21:55;;;;;;;10.98;4.18;;;5.30;59.00;;;;;;5096916;28;20073;-69
2022/02/06 07:24:21;;;;;;;11.85;5.68;;;5.40;58.90;;;;;;5078795;28;20032;-69
2022/02/06 07:26:51;;;;;;;15.10;5.72;;;5.60;58.80;;;;;;5078613;28;20031;-68
2022/02/06 07:29:17;;;;;;;18.55;6.30;;;5.70;58.70;;;;;;5096909;28;20024;-69
2022/02/06 07:31:46;;;;;;;10.65;5.15;;;5.80;58.60;;;;;;5096759;28;20028;-69
2022/02/06 07:34:12;;;;;;;5.82;2.95;;;5.90;58.40;;;;;;5078231;28;20164;-70
2022/02/06 07:36:38;;;;;;;10.55;3.05;;;6.00;58.30;;;;;;5078545;28;20039;-69
2022/02/06 07:39:04;;;;;;;7.68;3.72;;;6.10;58.10;;;;;;5078485;28;20032;-69
2022/02/06 07:41:30;;;;;;;5.47;2.35;;;6.20;57.90;;;;;;5078437;28;20157;-69
2022/02/06 07:43:56;;;;;;;10.73;2.58;;;6.30;57.30;;;;;;5078432;28;20066;-69
2022/02/06 07:46:29;;;;;;;3.08;1.80;;;6.30;57.40;;;;;;5078039;28;20031;-68
2022/02/06 07:48:59;;;;;;;5.50;2.13;;;6.50;57.60;;;;;;5078364;28;20024;-69
2022/02/06 07:51:25;;;;;;;4.95;2.20;;;6.60;57.60;;;;;;5096336;28;20025;-68
2022/02/06 07:53:51;;;;;;;8.27;2.10;;;6.70;57.50;;;;;;5096127;28;20075;-69
2022/02/06 07:56:17;;;;;;;6.85;2.20;;;6.70;57.30;;;;;;5096349;28;20024;-69
2022/02/06 07:58:42;;;;;;;7.05;2.17;;;6.80;57.20;;;;;;5096029;28;20024;-69
2022/02/06 08:01:08;;;;;;;6.72;3.00;;;6.90;57.00;;;;;;5078110;28;20070;-69
2022/02/06 08:03:34;;;;;;;6.97;2.67;;;7.00;57.00;;;;;;5096086;28;20452;-69
2022/02/06 08:06:00;;;;;;;6.07;2.58;;;7.00;56.90;;;;;;5077993;28;20024;-69
2022/02/06 08:08:25;;;;;;;13.65;2.60;;;7.10;56.80;;;;;;5095840;28;20383;-69
2022/02/06 08:10:58;;;;;;;8.90;2.20;;;7.10;56.60;;;;;;5096368;28;20102;-69
2022/02/06 08:13:37;;;;;;;4.40;2.42;;;7.20;56.50;;;;;;5077835;28;20038;-69
2022/02/06 08:16:04;;;;;;;10.02;3.58;;;7.30;56.50;;;;;;5096003;28;20036;-69
2022/02/06 08:18:30;;;;;;;9.10;3.30;;;7.30;56.30;;;;;;5077509;28;20031;-69
2022/02/06 08:20:56;;;;;;;3.65;2.13;;;7.30;56.20;;;;;;5095743;28;20103;-69
2022/02/06 08:23:21;;;;;;;7.22;2.50;;;7.40;56.30;;;;;;5095826;28;20028;-69
2022/02/06 08:25:48;;;;;;;7.75;2.67;;;7.40;56.30;;;;;;5095593;28;20032;-69
2022/02/06 08:28:15;;;;;;;5.35;2.38;;;7.50;56.40;;;;;;5077620;28;20046;-69
2022/02/06 08:30:42;;;;;;;5.57;2.13;;;7.50;56.40;;;;;;5095948;28;20355;-69
2022/02/06 08:33:08;;;;;;;8.00;4.13;;;7.60;56.20;;;;;;5073726;28;20415;-69
2022/02/06 08:35:33;;;;;;;8.23;3.97;;;7.60;56.10;;;;;;5057397;28;20040;-69
2022/02/06 08:37:59;;;;;;;7.60;2.88;;;7.70;56.00;;;;;;5090770;28;20124;-69
2022/02/06 08:40:25;;;;;;;4.63;2.40;;;7.80;56.00;;;;;;5075286;28;20025;-69
2022/02/06 08:42:51;;;;;;;4.90;2.05;;;7.90;56.30;;;;;;5057179;28;20031;-69
2022/02/06 08:45:20;;;;;;;12.23;1.75;;;8.00;55.30;;;;;;5075084;28;20028;-69
2022/02/06 08:47:50;;;;;;;4.88;1.55;;;8.00;54.90;;;;;;5057402;28;20033;-69
2022/02/06 08:50:16;;;;;;;5.72;1.55;;;8.10;54.90;;;;;;5074889;28;20021;-70
2022/02/06 08:52:42;;;;;;;9.52;1.73;;;8.20;55.10;;;;;;5075035;28;20034;-70
2022/02/06 08:55:09;;;;;;;3.20;1.42;;;8.40;55.00;;;;;;5090564;28;20476;-69
2022/02/06 08:57:37;;;;;;;4.50;2.17;;;8.60;54.90;;;;;;5056961;28;20029;-69
2022/02/06 09:00:05;;;;;;;5.68;2.60;;;8.90;54.80;;;;;;5056895;28;20021;-70
2022/02/06 09:02:31;;;;;;;4.00;2.00;;;9.10;54.80;;;;;;5074634;28;20017;-69
2022/02/06 09:04:57;;;;;;;5.68;1.88;;;9.40;54.20;;;;;;5075069;28;20094;-69
2022/02/06 09:07:23;;;;;;;7.65;1.85;;;9.70;53.10;;;;;;5074786;28;20090;-69
2022/02/06 09:09:55;;;;;;;7.43;1.20;;;9.90;51.40;;;;;;5073584;28;20036;-70
2022/02/06 09:12:21;;;;;;;4.82;1.50;;;10.10;51.40;;;;;;5074633;28;20021;-69
2022/02/06 09:14:48;;;;;;;7.38;1.73;;;10.20;51.00;;;;;;5056601;28;20036;-69
2022/02/06 09:17:14;;;;;;;3.35;1.35;;;10.30;50.70;;;;;;5056502;28;20033;-69
2022/02/06 09:19:40;;;;;;;3.88;1.30;;;10.40;50.60;;;;;;5074379;28;20035;-69
2022/02/06 09:22:10;;;;;;;4.82;1.50;;;10.60;50.10;;;;;;5074454;28;20017;-70
2022/02/06 09:24:36;;;;;;;4.25;1.92;;;10.70;48.90;;;;;;5056418;28;20059;-70
2022/02/06 09:27:03;;;;;;;3.55;1.40;;;10.90;48.50;;;;;;5073903;28;20090;-70
2022/02/06 09:29:28;;;;;;;4.53;1.45;;;11.00;48.00;;;;;;5073927;28;20035;-70
2022/02/06 09:31:54;;;;;;;6.18;1.27;;;11.10;46.80;;;;;;5056091;28;20427;-69
2022/02/06 09:36:47;;;;;;;4.00;1.13;;;11.30;46.10;;;;;;5074361;28;20038;-69
2022/02/06 09:39:13;;;;;;;5.43;1.25;;;11.30;45.70;;;;;;5074124;28;20112;-70
2022/02/06 09:41:47;;;;;;;7.32;1.02;;;11.30;45.70;;;;;;5074034;28;20442;-70
2022/02/06 09:44:14;;;;;;;2.58;1.23;;;11.30;46.10;;;;;;5056128;28;20027;-70
2022/02/06 09:46:42;;;;;;;5.43;1.08;;;11.30;46.10;;;;;;5055933;28;20028;-70
2022/02/06 09:49:09;;;;;;;2.88;1.05;;;11.20;44.80;;;;;;5056051;28;20032;-69
2022/02/06 09:51:35;;;;;;;1.83;0.98;;;11.20;45.10;;;;;;5073879;28;20032;-69
2022/02/06 09:54:03;;;;;;;6.50;1.20;;;11.20;45.30;;;;;;5074127;28;20368;-69
2022/02/06 09:56:32;;;;;;;5.63;1.30;;;11.10;45.10;;;;;;5055878;28;20032;-69
2022/02/06 09:59:06;;;;;;;3.33;1.08;;;11.10;44.80;;;;;;5073474;28;20024;-69
2022/02/06 10:01:34;;;;;;;5.85;1.48;;;11.10;44.30;;;;;;5074082;28;20027;-70
2022/02/06 10:04:06;;;;;;;5.38;0.88;;;11.10;44.40;;;;;;5055717;28;20035;-70
2022/02/06 10:06:46;;;;;;;5.22;1.40;;;11.10;44.20;;;;;;5055632;28;20028;-69
2022/02/06 10:09:18;;;;;;;2.85;1.15;;;11.20;44.10;;;;;;5073647;28;20028;-69
2022/02/06 10:11:52;;;;;;;4.97;0.80;;;11.20;43.60;;;;;;5055650;28;20090;-69
2022/02/06 10:14:19;;;;;;;6.78;1.85;;;11.30;43.40;;;;;;5055613;28;20035;-69
2022/02/06 10:16:45;;;;;;;3.40;1.15;;;11.30;43.30;;;;;;5055363;28;20029;-70
2022/02/06 10:19:13;;;;;;;2.58;1.08;;;11.30;42.80;;;;;;5073730;28;20074;-69
2022/02/06 10:21:41;;;;;;;3.38;1.10;;;11.30;43.20;;;;;;5073269;28;20219;-70
2022/02/06 10:24:16;;;;;;;3.42;0.90;;;11.30;43.10;;;;;;5073519;28;20026;-69
2022/02/06 10:26:52;;;;;;;4.47;0.95;;;11.30;43.10;;;;;;5073394;28;20049;-69
2022/02/06 10:31:56;;;;;;;2.95;1.17;;;11.30;42.50;;;;;;5073384;28;20040;-69
2022/02/06 10:34:24;;;;;;;3.85;1.52;;;11.30;42.60;;;;;;5068994;28;20491;-69
2022/02/06 10:37:08;;;;;;;6.18;0.90;;;11.30;42.30;;;;;;5075451;28;20126;-70
2022/02/06 10:39:36;;;;;;;5.40;1.15;;;11.30;41.90;;;;;;5093795;28;20103;-69
2022/02/06 10:42:02;;;;;;;3.85;1.33;;;11.30;41.60;;;;;;5075259;28;20468;-69
2022/02/06 10:44:31;;;;;;;5.47;1.20;;;11.30;41.90;;;;;;5093161;28;20035;-70
2022/02/06 10:46:58;;;;;;;4.10;1.33;;;11.40;42.30;;;;;;5075269;28;20051;-69
2022/02/06 10:49:25;;;;;;;4.03;1.10;;;11.40;41.60;;;;;;5093324;28;20031;-70
2022/02/06 10:52:02;;;;;;;4.82;0.95;;;11.40;41.70;;;;;;5093635;28;20495;-70
2022/02/06 10:54:28;;;;;;;2.75;1.33;;;11.40;41.40;;;;;;5093607;28;20024;-69
2022/02/06 10:56:57;;;;;;;2.33;1.17;;;11.40;41.40;;;;;;5074872;28;20089;-69
2022/02/06 10:59:23;;;;;;;1.65;1.00;;;11.50;41.50;;;;;;5093127;28;20089;-69
2022/02/06 11:01:49;;;;;;;5.82;0.63;;;11.50;41.40;;;;;;5074978;28;20414;-70
2022/02/06 11:04:25;;;;;;;4.47;1.30;;;11.50;41.70;;;;;;5093274;28;20035;-69
2022/02/06 11:07:06;;;;;;;3.00;1.00;;;11.60;41.80;;;;;;5093205;28;20371;-69
2022/02/06 11:09:32;;;;;;;2.17;1.00;;;11.70;42.20;;;;;;5075178;28;20384;-70
2022/02/06 11:11:58;;;;;;;5.90;1.00;;;11.80;42.20;;;;;;5093200;28;20379;-69
2022/02/06 11:14:26;;;;;;;2.28;1.10;;;11.90;41.70;;;;;;5093425;28;20058;-69
2022/02/06 11:16:53;;;;;;;2.65;0.98;;;11.90;41.40;;;;;;5074903;28;20035;-71
2022/02/06 11:19:22;;;;;;;3.95;0.98;;;12.00;41.70;;;;;;5093169;28;20024;-69
2022/02/06 11:22:10;;;;;;;5.28;1.00;;;12.10;41.00;;;;;;5093077;28;20099;-69
2022/02/06 11:24:37;;;;;;;4.45;0.80;;;12.10;40.70;;;;;;5074926;28;20020;-69
2022/02/06 11:27:08;;;;;;;4.32;0.90;;;12.20;41.10;;;;;;5074850;28;20498;-69
2022/02/06 11:29:34;;;;;;;3.72;1.00;;;12.20;40.50;;;;;;5093290;28;20111;-69
2022/02/06 11:32:01;;;;;;;3.38;1.33;;;12.30;40.70;;;;;;5074699;28;20426;-69
2022/02/06 11:34:28;;;;;;;6.35;1.13;;;12.40;40.40;;;;;;5074344;28;20060;-70
2022/02/06 11:46:11;;;;;;;4.95;1.45;;;12.70;39.80;;;;;;5076050;28;20039;-70
2022/02/06 11:48:39;;;;;;;9.85;1.65;;;12.70;39.50;;;;;;5076287;28;20082;-70
2022/02/06 11:51:05;;;;;;;3.25;1.10;;;12.70;39.80;;;;;;5076110;28;20031;-71
2022/02/06 11:53:38;;;;;;;1.98;1.00;;;12.70;38.90;;;;;;5090074;28;20028;-69
2022/02/06 11:56:30;;;;;;;2.42;0.90;;;12.70;38.70;;;;;;5058215;28;20032;-69
2022/02/06 11:59:06;;;;;;;4.65;1.02;;;12.60;38.50;;;;;;5057844;28;20028;-69
2022/02/06 12:01:32;;;;;;;6.95;1.35;;;12.70;38.30;;;;;;5076005;28;20078;-69
2022/02/06 12:04:04;;;;;;;3.53;1.00;;;12.70;38.50;;;;;;5058016;28;20372;-69
2022/02/06 12:06:47;;;;;;;4.80;1.00;;;12.70;38.30;;;;;;5075920;28;20063;-69
2022/02/06 12:09:16;;;;;;;2.13;0.80;;;12.80;39.00;;;;;;5075748;28;20119;-69
2022/02/06 12:12:08;;;;;;;7.93;1.08;;;12.90;39.50;;;;;;5075693;28;20071;-69
2022/02/06 12:14:45;;;;;;;4.50;1.02;;;13.00;38.80;;;;;;5075376;28;20050;-69
2022/02/06 12:17:44;;;;;;;4.57;1.05;;;13.10;37.90;;;;;;5057864;28;20028;-69
2022/02/06 12:20:11;;;;;;;6.10;0.98;;;13.20;37.50;;;;;;5075677;28;20059;-69
2022/02/06 12:22:39;;;;;;;2.42;0.70;;;13.20;37.90;;;;;;5075333;28;20024;-71
2022/02/06 12:25:36;;;;;;;12.45;1.42;;;13.20;37.80;;;;;;5057296;28;20375;-69
2022/02/06 12:28:11;;;;;;;4.97;0.98;;;13.20;37.70;;;;;;5075581;28;20028;-69
2022/02/06 12:30:40;;;;;;;1.95;0.60;;;13.20;36.90;;;;;;5075365;28;20078;-70
2022/02/06 12:33:35;;;;;;;5.82;1.38;;;13.20;37.40;;;;;;5074829;28;20072;-69
2022/02/06 12:38:45;;;;;;;6.32;0.88;;;13.20;37.70;;;;;;5075094;28;20031;-69
2022/02/06 12:41:18;;;;;;;3.28;0.77;;;13.30;37.80;;;;;;5075514;28;20032;-70
2022/02/06 12:43:53;;;;;;;1.88;0.90;;;13.20;37.60;;;;;;5056872;28;20035;-70
2022/02/06 12:46:24;;;;;;;8.15;1.20;;;13.30;37.00;;;;;;5074676;28;20031;-70
2022/02/06 12:48:52;;;;;;;4.93;0.90;;;13.30;37.10;;;;;;5074880;28;20439;-70
2022/02/06 12:51:27;;;;;;;2.53;0.77;;;13.40;37.10;;;;;;5057153;28;20031;-69
2022/02/06 12:54:05;;;;;;;3.47;0.73;;;13.40;37.20;;;;;;5057072;28;20021;-69
2022/02/06 12:56:33;;;;;;;6.05;0.70;;;13.50;37.20;;;;;;5074724;28;20021;-69
2022/02/06 12:59:00;;;;;;;4.03;0.93;;;13.50;37.50;;;;;;5074846;28;20066;-70
2022/02/06 13:01:41;;;;;;;4.47;0.93;;;13.60;36.40;;;;;;5074543;28;20044;-70
2022/02/06 13:04:10;;;;;;;2.08;0.50;;;13.60;37.00;;;;;;5074571;28;20070;-70
2022/02/06 13:06:40;;;;;;;3.80;0.90;;;13.60;36.90;;;;;;5074386;28;20025;-69
2022/02/06 13:09:14;;;;;;;2.03;0.55;;;13.70;36.30;;;;;;5074688;28;20094;-70
2022/02/06 13:12:02;;;;;;;2.53;0.93;;;13.70;36.40;;;;;;5074972;28;20411;-69
2022/02/06 13:20:34;;;;;;;1.92;0.60;;;13.70;36.30;;;;;;5074585;28;20021;-70
2022/02/06 13:33:52;;;;;;;3.13;0.82;;;13.60;36.40;;;;;;5079845;28;20098;-69
2022/02/06 13:36:31;;;;;;;2.00;0.70;;;13.60;36.60;;;;;;5094210;28;20028;-70
2022/02/06 13:39:03;;;;;;;4.90;1.05;;;13.70;36.90;;;;;;5094363;28;20031;-69
2022/02/06 13:41:32;;;;;;;2.60;0.75;;;13.70;36.90;;;;;;5094325;28;20020;-70
2022/02/06 13:43:59;;;;;;;2.45;0.85;;;13.70;36.40;;;;;;5076120;28;20024;-70
2022/02/06 13:46:29;;;;;;;1.63;0.70;;;13.70;35.90;;;;;;5094282;28;20058;-70
2022/02/06 13:48:56;;;;;;;7.55;0.90;;;13.70;35.60;;;;;;5094139;28;20027;-70
2022/02/06 13:51:28;;;;;;;3.85;0.77;;;13.60;35.20;;;;;;5094267;28;20024;-69
2022/02/06 13:54:03;;;;;;;3.17;0.98;;;13.60;34.90;;;;;;5093845;28;20102;-70
2022/02/06 13:56:31;;;;;;;2.05;0.70;;;13.60;35.40;;;;;;5075682;28;20395;-70
2022/02/06 13:59:01;;;;;;;2.28;0.80;;;13.60;35.30;;;;;;5075847;28;20417;-70
2022/02/06 14:01:46;;;;;;;4.97;0.90;;;13.60;35.50;;;;;;5093942;28;20021;-69
2022/02/06 14:04:27;;;;;;;2.05;0.70;;;13.60;35.00;;;;;;5093772;28;20544;-70
2022/02/06 14:07:19;;;;;;;3.50;0.85;;;13.60;35.20;;;;;;5093830;28;20028;-70
2022/02/06 14:12:26;;;;;;;1.08;0.70;;;13.60;34.40;;;;;;5093752;28;20025;-69
2022/02/06 14:15:01;;;;;;;2.92;0.65;;;13.60;34.00;;;;;;5075579;28;20107;-69
2022/02/06 14:17:37;;;;;;;2.25;0.88;;;13.60;34.10;;;;;;5093588;28;20383;-69
2022/02/06 14:20:12;;;;;;;2.58;0.57;;;13.60;34.40;;;;;;5093865;28;20031;-69
2022/02/06 14:22:43;;;;;;;1.38;0.65;;;13.70;34.00;;;;;;5093423;28;20039;-69
2022/02/06 14:25:15;;;;;;;3.63;0.95;;;13.70;34.10;;;;;;5075544;28;20081;-69
2022/02/06 14:27:45;;;;;;;4.57;0.90;;;13.70;33.90;;;;;;5075469;28;20051;-69
2022/02/06 14:30:11;;;;;;;2.25;0.80;;;13.80;34.10;;;;;;5093194;28;20463;-70
2022/02/06 14:32:56;;;;;;;1.38;0.68;;;13.80;33.70;;;;;;5093684;28;20027;-70
2022/02/06 14:35:28;;;;;;;2.50;1.05;;;13.70;33.30;;;;;;5093864;28;20097;-69
2022/02/06 14:37:57;;;;;;;3.72;1.20;;;13.70;33.30;;;;;;5075417;28;20028;-71
2022/02/06 14:43:14;;;;;;;3.78;0.90;;;13.80;33.20;;;;;;5061278;28;20533;-70
2022/02/06 14:45:56;;;;;;;5.68;1.08;;;13.70;33.00;;;;;;5093337;28;20098;-70
2022/02/06 14:48:26;;;;;;;3.00;1.00;;;13.70;32.90;;;;;;5093170;28;20021;-69
2022/02/06 14:50:52;;;;;;;4.90;1.30;;;13.70;32.90;;;;;;5075269;28;20088;-68
2022/02/06 14:53:20;;;;;;;6.95;1.98;;;13.70;32.90;;;;;;5093559;28;20020;-69
2022/02/06 14:55:48;;;;;;;3.30;1.15;;;13.60;32.40;;;;;;5074892;28;20032;-69
2022/02/06 14:58:15;;;;;;;1.88;1.00;;;13.60;32.60;;;;;;5075079;28;20035;-69
2022/02/06 15:00:41;;;;;;;9.05;1.50;;;13.60;32.50;;;;;;5093078;28;20031;-69
2022/02/06 15:03:07;;;;;;;2.17;0.95;;;13.60;32.60;;;;;;5075102;28;20028;-69
2022/02/06 15:05:35;;;;;;;3.05;1.23;;;13.60;33.00;;;;;;5093118;28;20032;-69
2022/02/06 15:08:02;;;;;;;4.55;1.15;;;13.60;32.90;;;;;;5076176;28;20052;-69
2022/02/06 15:10:28;;;;;;;2.53;0.90;;;13.60;33.40;;;;;;5078691;28;20020;-69
2022/02/06 15:12:55;;;;;;;3.20;0.65;;;13.60;33.30;;;;;;5097082;28;20150;-69
2022/02/06 15:15:23;;;;;;;1.48;0.68;;;13.50;33.00;;;;;;5078834;28;20107;-69
2022/02/06 15:17:51;;;;;;;5.75;0.88;;;13.50;33.50;;;;;;5078810;28;20030;-70
2022/02/06 15:20:17;;;;;;;1.08;0.65;;;13.50;33.70;;;;;;5078864;28;20119;-69
2022/02/06 15:22:43;;;;;;;2.15;0.90;;;13.50;33.80;;;;;;5096962;28;20103;-69
2022/02/06 15:25:09;;;;;;;4.72;0.75;;;13.50;33.70;;;;;;5096490;28;20031;-69
2022/02/06 15:27:34;;;;;;;7.85;1.70;;;13.50;33.60;;;;;;5078809;28;20028;-69
2022/02/06 15:30:00;;;;;;;1.63;0.80;;;13.50;33.40;;;;;;5096952;28;20418;-69
2022/02/06 15:32:26;;;;;;;2.58;0.90;;;13.50;33.70;;;;;;5096930;28;20035;-69
2022/02/06 15:34:52;;;;;;;1.80;0.90;;;13.40;33.90;;;;;;5096270;28;20083;-69
2022/02/06 15:37:18;;;;;;;2.60;1.00;;;13.40;33.70;;;;;;5096787;28;20499;-69
2022/02/06 15:39:46;;;;;;;4.93;0.90;;;13.40;33.90;;;;;;5096615;28;20028;-68
2022/02/06 15:42:15;;;;;;;1.73;0.77;;;13.40;33.60;;;;;;5078405;28;20028;-70